Amity, Arkansas
Current Conditions -  °F | °C
As of 9:40 AM on Friday 19 Dec 2014 (Local Time) from KMWT Reporting Station
Light Rain Light Rain  
Wind Chill: 41°   Ceiling: 200
Heat Index: 41°   Visibility: 2.5mi
Dew Point: 39°   Wind: 0mph
Humidity: 93%   Direction: NA
Pressure: 30.22"   Gusts: NA
Location:  34.26°N, 93.46°W
Report Text: KMWT 191540Z AUTO 00000KT 2 1/2SM -RA BR OVC002 05/04 A3022 RMK AO2 RAB20 P0000 T00500039
Loading
Personal Weather Stations






























Interactive Weather Map New forecast layout! Learn more

10-Day Weather Forecast

Advertisements
Track Severe Weather on mobile